sensor_id;sensor_type;location;lat;lon;timestamp;temperature;humidity
9699;DHT22;10089;47.876;8.346;2023-05-07T00:01:09;11.00;99.90
9699;DHT22;10089;47.876;8.346;2023-05-07T00:03:36;10.90;99.90
9699;DHT22;10089;47.876;8.346;2023-05-07T00:06:03;10.90;99.90
9699;DHT22;10089;47.876;8.346;2023-05-07T00:08:29;11.00;99.90
9699;DHT22;10089;47.876;8.346;2023-05-07T00:10:54;10.90;99.90
9699;DHT22;10089;47.876;8.346;2023-05-07T00:13:20;10.80;99.90
9699;DHT22;10089;47.876;8.346;2023-05-07T00:15:46;10.80;99.90
9699;DHT22;10089;47.876;8.346;2023-05-07T00:18:12;10.80;99.90
9699;DHT22;10089;47.876;8.346;2023-05-07T00:20:37;10.80;99.90
9699;DHT22;10089;47.876;8.346;2023-05-07T00:23:03;10.80;99.90
9699;DHT22;10089;47.876;8.346;2023-05-07T00:25:29;10.70;99.90
9699;DHT22;10089;47.876;8.346;2023-05-07T00:27:54;10.70;99.90
9699;DHT22;10089;47.876;8.346;2023-05-07T00:30:20;10.60;99.90
9699;DHT22;10089;47.876;8.346;2023-05-07T00:32:46;10.60;99.90
9699;DHT22;10089;47.876;8.346;2023-05-07T00:35:14;10.60;99.90
9699;DHT22;10089;47.876;8.346;2023-05-07T00:37:40;10.60;99.90
9699;DHT22;10089;47.876;8.346;2023-05-07T00:40:06;10.60;99.90
9699;DHT22;10089;47.876;8.346;2023-05-07T00:42:33;10.60;99.90
9699;DHT22;10089;47.876;8.346;2023-05-07T00:44:58;10.50;99.90
9699;DHT22;10089;47.876;8.346;2023-05-07T00:47:25;10.50;99.90
9699;DHT22;10089;47.876;8.346;2023-05-07T00:49:51;10.60;99.90
9699;DHT22;10089;47.876;8.346;2023-05-07T00:52:20;10.50;99.90
9699;DHT22;10089;47.876;8.346;2023-05-07T00:54:47;10.60;99.90
9699;DHT22;10089;47.876;8.346;2023-05-07T00:57:13;10.70;99.90
9699;DHT22;10089;47.876;8.346;2023-05-07T00:59:40;10.60;99.90
9699;DHT22;10089;47.876;8.346;2023-05-07T01:02:07;10.50;99.90
9699;DHT22;10089;47.876;8.346;2023-05-07T01:04:33;10.60;99.90
9699;DHT22;10089;47.876;8.346;2023-05-07T01:06:59;10.50;99.90
9699;DHT22;10089;47.876;8.346;2023-05-07T01:09:27;10.50;99.90
9699;DHT22;10089;47.876;8.346;2023-05-07T01:11:54;10.50;99.90
9699;DHT22;10089;47.876;8.346;2023-05-07T01:14:20;10.50;99.90
9699;DHT22;10089;47.876;8.346;2023-05-07T01:16:47;10.50;99.90
9699;DHT22;10089;47.876;8.346;2023-05-07T01:19:14;10.50;99.90
9699;DHT22;10089;47.876;8.346;2023-05-07T01:21:48;10.50;99.90
9699;DHT22;10089;47.876;8.346;2023-05-07T01:24:14;10.50;99.90
9699;DHT22;10089;47.876;8.346;2023-05-07T01:26:41;10.50;99.90
9699;DHT22;10089;47.876;8.346;2023-05-07T01:29:07;10.50;99.90
9699;DHT22;10089;47.876;8.346;2023-05-07T01:31:34;10.50;99.90
9699;DHT22;10089;47.876;8.346;2023-05-07T01:34:01;10.50;99.90
9699;DHT22;10089;47.876;8.346;2023-05-07T01:36:28;10.60;99.90
9699;DHT22;10089;47.876;8.346;2023-05-07T01:38:55;10.70;99.90
9699;DHT22;10089;47.876;8.346;2023-05-07T01:41:23;10.70;99.90
9699;DHT22;10089;47.876;8.346;2023-05-07T01:43:50;10.80;99.90
9699;DHT22;10089;47.876;8.346;2023-05-07T01:46:18;10.70;99.90
9699;DHT22;10089;47.876;8.346;2023-05-07T01:48:45;10.70;99.90
9699;DHT22;10089;47.876;8.346;2023-05-07T01:51:11;10.70;99.90
9699;DHT22;10089;47.876;8.346;2023-05-07T01:53:38;10.80;99.90
9699;DHT22;10089;47.876;8.346;2023-05-07T01:56:05;10.70;99.90
9699;DHT22;10089;47.876;8.346;2023-05-07T01:58:31;10.60;99.90
9699;DHT22;10089;47.876;8.346;2023-05-07T02:00:56;10.50;99.90
9699;DHT22;10089;47.876;8.346;2023-05-07T02:03:22;10.50;99.90
9699;DHT22;10089;47.876;8.346;2023-05-07T02:05:47;10.50;99.90
9699;DHT22;10089;47.876;8.346;2023-05-07T02:08:13;10.40;99.90
9699;DHT22;10089;47.876;8.346;2023-05-07T02:10:39;10.40;99.90
9699;DHT22;10089;47.876;8.346;2023-05-07T02:13:04;10.50;99.90
9699;DHT22;10089;47.876;8.346;2023-05-07T02:15:30;10.40;99.90
9699;DHT22;10089;47.876;8.346;2023-05-07T02:18:04;10.30;99.90
9699;DHT22;10089;47.876;8.346;2023-05-07T02:20:30;10.30;99.90
9699;DHT22;10089;47.876;8.346;2023-05-07T02:22:56;10.20;99.90
9699;DHT22;10089;47.876;8.346;2023-05-07T02:25:22;10.20;99.90
9699;DHT22;10089;47.876;8.346;2023-05-07T02:27:47;10.20;99.90
9699;DHT22;10089;47.876;8.346;2023-05-07T02:30:14;10.20;99.90
9699;DHT22;10089;47.876;8.346;2023-05-07T02:32:40;10.10;99.90
9699;DHT22;10089;47.876;8.346;2023-05-07T02:35:06;10.20;99.90
9699;DHT22;10089;47.876;8.346;2023-05-07T02:37:31;10.10;99.90
9699;DHT22;10089;47.876;8.346;2023-05-07T02:39:57;10.10;99.90
9699;DHT22;10089;47.876;8.346;2023-05-07T02:42:22;10.10;99.90
9699;DHT22;10089;47.876;8.346;2023-05-07T02:44:48;10.10;99.90
9699;DHT22;10089;47.876;8.346;2023-05-07T02:47:15;10.10;99.90
9699;DHT22;10089;47.876;8.346;2023-05-07T02:49:41;10.20;99.90
9699;DHT22;10089;47.876;8.346;2023-05-07T02:52:07;10.00;99.90
9699;DHT22;10089;47.876;8.346;2023-05-07T02:54:32;9.90;99.90
9699;DHT22;10089;47.876;8.346;2023-05-07T02:56:58;9.90;99.90
9699;DHT22;10089;47.876;8.346;2023-05-07T02:59:24;9.80;99.90
9699;DHT22;10089;47.876;8.346;2023-05-07T03:01:51;9.70;99.90
9699;DHT22;10089;47.876;8.346;2023-05-07T03:04:17;9.70;99.90
9699;DHT22;10089;47.876;8.346;2023-05-07T03:06:43;9.60;99.90
9699;DHT22;10089;47.876;8.346;2023-05-07T03:09:08;9.70;99.90
9699;DHT22;10089;47.876;8.346;2023-05-07T03:11:34;9.80;99.90
9699;DHT22;10089;47.876;8.346;2023-05-07T03:14:01;9.80;99.90
9699;DHT22;10089;47.876;8.346;2023-05-07T03:16:27;9.70;99.90
9699;DHT22;10089;47.876;8.346;2023-05-07T03:18:53;9.70;99.90
9699;DHT22;10089;47.876;8.346;2023-05-07T03:21:18;9.60;99.90
9699;DHT22;10089;47.876;8.346;2023-05-07T03:23:44;9.50;99.90
9699;DHT22;10089;47.876;8.346;2023-05-07T03:26:10;9.50;99.90
9699;DHT22;10089;47.876;8.346;2023-05-07T03:28:36;9.40;99.90
9699;DHT22;10089;47.876;8.346;2023-05-07T03:31:02;9.50;99.90
9699;DHT22;10089;47.876;8.346;2023-05-07T03:33:28;9.40;99.90
9699;DHT22;10089;47.876;8.346;2023-05-07T03:35:54;9.30;99.90
9699;DHT22;10089;47.876;8.346;2023-05-07T03:38:19;9.30;99.90
9699;DHT22;10089;47.876;8.346;2023-05-07T03:40:45;9.40;99.90
9699;DHT22;10089;47.876;8.346;2023-05-07T03:43:11;9.40;99.90
9699;DHT22;10089;47.876;8.346;2023-05-07T03:45:36;9.30;99.90
9699;DHT22;10089;47.876;8.346;2023-05-07T03:48:02;9.20;99.90
9699;DHT22;10089;47.876;8.346;2023-05-07T03:50:28;9.20;99.90
9699;DHT22;10089;47.876;8.346;2023-05-07T03:52:54;9.30;99.90
9699;DHT22;10089;47.876;8.346;2023-05-07T03:55:19;9.20;99.90
9699;DHT22;10089;47.876;8.346;2023-05-07T03:57:45;9.20;99.90
9699;DHT22;10089;47.876;8.346;2023-05-07T04:00:11;9.20;99.90
9699;DHT22;10089;47.876;8.346;2023-05-07T04:02:37;9.20;99.90
9699;DHT22;10089;47.876;8.346;2023-05-07T04:05:03;9.20;99.90
9699;DHT22;10089;47.876;8.346;2023-05-07T04:07:28;9.20;99.90
9699;DHT22;10089;47.876;8.346;2023-05-07T04:09:54;9.30;99.90
9699;DHT22;10089;47.876;8.346;2023-05-07T04:12:20;9.30;99.90
9699;DHT22;10089;47.876;8.346;2023-05-07T04:14:45;9.20;99.90
9699;DHT22;10089;47.876;8.346;2023-05-07T04:17:11;9.30;99.90
9699;DHT22;10089;47.876;8.346;2023-05-07T04:19:37;9.40;99.90
9699;DHT22;10089;47.876;8.346;2023-05-07T04:22:03;9.40;99.90
9699;DHT22;10089;47.876;8.346;2023-05-07T04:24:32;9.40;99.90
9699;DHT22;10089;47.876;8.346;2023-05-07T04:26:58;9.30;99.90
9699;DHT22;10089;47.876;8.346;2023-05-07T04:29:24;9.30;99.90
9699;DHT22;10089;47.876;8.346;2023-05-07T04:31:49;9.30;99.90
9699;DHT22;10089;47.876;8.346;2023-05-07T04:34:15;9.30;99.90
9699;DHT22;10089;47.876;8.346;2023-05-07T04:36:42;9.30;99.90
9699;DHT22;10089;47.876;8.346;2023-05-07T04:39:07;9.40;99.90
9699;DHT22;10089;47.876;8.346;2023-05-07T04:41:35;9.40;99.90
9699;DHT22;10089;47.876;8.346;2023-05-07T04:44:01;9.50;99.90
9699;DHT22;10089;47.876;8.346;2023-05-07T04:46:29;9.60;99.90
9699;DHT22;10089;47.876;8.346;2023-05-07T04:48:55;9.60;99.90
9699;DHT22;10089;47.876;8.346;2023-05-07T04:51:21;9.60;99.90
9699;DHT22;10089;47.876;8.346;2023-05-07T04:53:47;9.70;99.90
9699;DHT22;10089;47.876;8.346;2023-05-07T04:56:13;9.80;99.90
9699;DHT22;10089;47.876;8.346;2023-05-07T04:58:38;9.90;99.90
9699;DHT22;10089;47.876;8.346;2023-05-07T05:01:04;9.90;99.90
9699;DHT22;10089;47.876;8.346;2023-05-07T05:03:30;10.00;99.90
9699;DHT22;10089;47.876;8.346;2023-05-07T05:05:56;10.10;99.90
9699;DHT22;10089;47.876;8.346;2023-05-07T05:08:24;10.30;99.90
9699;DHT22;10089;47.876;8.346;2023-05-07T05:10:50;10.50;99.90
9699;DHT22;10089;47.876;8.346;2023-05-07T05:13:16;10.90;99.90
9699;DHT22;10089;47.876;8.346;2023-05-07T05:15:41;11.40;99.90
9699;DHT22;10089;47.876;8.346;2023-05-07T05:18:07;11.90;99.90
9699;DHT22;10089;47.876;8.346;2023-05-07T05:20:33;12.40;99.90
9699;DHT22;10089;47.876;8.346;2023-05-07T05:22:58;12.90;99.90
9699;DHT22;10089;47.876;8.346;2023-05-07T05:25:24;13.50;99.90
9699;DHT22;10089;47.876;8.346;2023-05-07T05:27:50;13.40;1.00
9699;DHT22;10089;47.876;8.346;2023-05-07T05:30:15;13.60;1.00
9699;DHT22;10089;47.876;8.346;2023-05-07T05:32:41;13.90;1.00
9699;DHT22;10089;47.876;8.346;2023-05-07T05:35:07;14.00;1.00
9699;DHT22;10089;47.876;8.346;2023-05-07T05:37:33;14.20;1.00
9699;DHT22;10089;47.876;8.346;2023-05-07T05:39:59;14.40;1.00
9699;DHT22;10089;47.876;8.346;2023-05-07T05:42:24;14.50;1.00
9699;DHT22;10089;47.876;8.346;2023-05-07T05:44:50;14.40;1.00
9699;DHT22;10089;47.876;8.346;2023-05-07T05:47:16;14.40;1.00
9699;DHT22;10089;47.876;8.346;2023-05-07T05:49:41;14.30;1.00
9699;DHT22;10089;47.876;8.346;2023-05-07T05:52:09;14.10;1.00
9699;DHT22;10089;47.876;8.346;2023-05-07T05:54:35;13.90;1.00
9699;DHT22;10089;47.876;8.346;2023-05-07T05:57:01;13.70;1.00
9699;DHT22;10089;47.876;8.346;2023-05-07T05:59:29;13.60;1.00
9699;DHT22;10089;47.876;8.346;2023-05-07T06:01:55;13.60;15.60
9699;DHT22;10089;47.876;8.346;2023-05-07T06:04:20;13.60;49.90
9699;DHT22;10089;47.876;8.346;2023-05-07T06:06:46;13.70;16.40
9699;DHT22;10089;47.876;8.346;2023-05-07T06:09:12;13.90;72.10
9699;DHT22;10089;47.876;8.346;2023-05-07T06:11:37;14.00;99.90
9699;DHT22;10089;47.876;8.346;2023-05-07T06:14:03;14.30;33.10
9699;DHT22;10089;47.876;8.346;2023-05-07T06:16:29;14.80;5.20
9699;DHT22;10089;47.876;8.346;2023-05-07T06:18:55;15.40;1.00
9699;DHT22;10089;47.876;8.346;2023-05-07T06:21:21;16.10;1.00
9699;DHT22;10089;47.876;8.346;2023-05-07T06:23:46;16.40;1.00
9699;DHT22;10089;47.876;8.346;2023-05-07T06:26:12;16.90;91.10
9699;DHT22;10089;47.876;8.346;2023-05-07T06:28:39;16.70;1.00
9699;DHT22;10089;47.876;8.346;2023-05-07T06:31:16;16.30;1.00
9699;DHT22;10089;47.876;8.346;2023-05-07T06:33:43;16.00;1.00
9699;DHT22;10089;47.876;8.346;2023-05-07T06:36:09;16.00;99.90
9699;DHT22;10089;47.876;8.346;2023-05-07T06:38:35;16.30;99.90
9699;DHT22;10089;47.876;8.346;2023-05-07T06:41:01;16.00;99.90
9699;DHT22;10089;47.876;8.346;2023-05-07T06:43:27;15.70;1.00
9699;DHT22;10089;47.876;8.346;2023-05-07T06:45:53;15.80;99.90
9699;DHT22;10089;47.876;8.346;2023-05-07T06:48:18;15.70;1.00
9699;DHT22;10089;47.876;8.346;2023-05-07T06:50:44;15.70;99.90
9699;DHT22;10089;47.876;8.346;2023-05-07T06:53:10;15.90;99.90
9699;DHT22;10089;47.876;8.346;2023-05-07T06:55:35;15.60;1.00
9699;DHT22;10089;47.876;8.346;2023-05-07T06:58:03;16.20;99.90
9699;DHT22;10089;47.876;8.346;2023-05-07T07:00:29;16.90;99.90
9699;DHT22;10089;47.876;8.346;2023-05-07T07:02:55;17.50;90.50
9699;DHT22;10089;47.876;8.346;2023-05-07T07:05:27;17.20;1.00
9699;DHT22;10089;47.876;8.346;2023-05-07T07:07:52;17.10;1.00
9699;DHT22;10089;47.876;8.346;2023-05-07T07:10:22;17.30;1.00
9699;DHT22;10089;47.876;8.346;2023-05-07T07:12:49;17.00;1.00
9699;DHT22;10089;47.876;8.346;2023-05-07T07:15:17;16.60;1.00
9699;DHT22;10089;47.876;8.346;2023-05-07T07:17:42;16.50;1.00
9699;DHT22;10089;47.876;8.346;2023-05-07T07:20:08;16.20;1.00
9699;DHT22;10089;47.876;8.346;2023-05-07T07:22:34;15.90;99.90
9699;DHT22;10089;47.876;8.346;2023-05-07T07:25:00;16.80;1.00
9699;DHT22;10089;47.876;8.346;2023-05-07T07:27:29;16.80;1.00
9699;DHT22;10089;47.876;8.346;2023-05-07T07:29:54;16.10;1.00
9699;DHT22;10089;47.876;8.346;2023-05-07T07:32:20;16.80;99.90
9699;DHT22;10089;47.876;8.346;2023-05-07T07:34:46;17.20;1.00
9699;DHT22;10089;47.876;8.346;2023-05-07T07:37:12;18.10;1.00
9699;DHT22;10089;47.876;8.346;2023-05-07T07:39:37;18.10;1.00
9699;DHT22;10089;47.876;8.346;2023-05-07T07:42:03;18.30;99.90
9699;DHT22;10089;47.876;8.346;2023-05-07T07:44:34;18.80;1.00
9699;DHT22;10089;47.876;8.346;2023-05-07T07:47:00;17.80;1.00
9699;DHT22;10089;47.876;8.346;2023-05-07T07:49:26;17.40;10.40
9699;DHT22;10089;47.876;8.346;2023-05-07T07:51:51;17.10;99.90
9699;DHT22;10089;47.876;8.346;2023-05-07T07:54:17;17.60;99.90
9699;DHT22;10089;47.876;8.346;2023-05-07T07:56:43;17.90;1.00
9699;DHT22;10089;47.876;8.346;2023-05-07T07:59:08;18.30;99.90
9699;DHT22;10089;47.876;8.346;2023-05-07T08:01:34;18.80;99.90
9699;DHT22;10089;47.876;8.346;2023-05-07T08:04:00;18.80;99.90
9699;DHT22;10089;47.876;8.346;2023-05-07T08:06:32;18.60;99.90
9699;DHT22;10089;47.876;8.346;2023-05-07T08:08:58;19.00;50.50
9699;DHT22;10089;47.876;8.346;2023-05-07T08:11:24;19.10;1.00
9699;DHT22;10089;47.876;8.346;2023-05-07T08:13:50;19.00;1.00
9699;DHT22;10089;47.876;8.346;2023-05-07T08:16:16;19.80;1.00
9699;DHT22;10089;47.876;8.346;2023-05-07T08:18:42;20.00;1.00
9699;DHT22;10089;47.876;8.346;2023-05-07T08:21:08;20.20;45.20
9699;DHT22;10089;47.876;8.346;2023-05-07T08:23:33;20.30;1.00
9699;DHT22;10089;47.876;8.346;2023-05-07T08:26:00;20.50;99.90
9699;DHT22;10089;47.876;8.346;2023-05-07T08:28:25;20.60;99.90
9699;DHT22;10089;47.876;8.346;2023-05-07T08:30:51;20.60;1.00
9699;DHT22;10089;47.876;8.346;2023-05-07T08:33:17;20.90;99.90
9699;DHT22;10089;47.876;8.346;2023-05-07T08:35:42;21.00;89.70
9699;DHT22;10089;47.876;8.346;2023-05-07T08:38:08;20.90;99.90
9699;DHT22;10089;47.876;8.346;2023-05-07T08:40:41;21.00;1.00
9699;DHT22;10089;47.876;8.346;2023-05-07T08:43:07;21.10;1.00
9699;DHT22;10089;47.876;8.346;2023-05-07T08:45:34;21.00;88.70
9699;DHT22;10089;47.876;8.346;2023-05-07T08:48:03;20.40;1.00
9699;DHT22;10089;47.876;8.346;2023-05-07T08:50:31;20.70;7.20
9699;DHT22;10089;47.876;8.346;2023-05-07T08:52:57;20.70;1.00
9699;DHT22;10089;47.876;8.346;2023-05-07T08:55:25;20.70;1.00
9699;DHT22;10089;47.876;8.346;2023-05-07T08:57:51;20.70;1.00
9699;DHT22;10089;47.876;8.346;2023-05-07T09:00:18;20.20;1.00
9699;DHT22;10089;47.876;8.346;2023-05-07T09:02:44;20.70;99.90
9699;DHT22;10089;47.876;8.346;2023-05-07T09:05:09;21.10;1.00
9699;DHT22;10089;47.876;8.346;2023-05-07T09:07:35;20.60;99.90
9699;DHT22;10089;47.876;8.346;2023-05-07T09:10:05;21.10;99.90
9699;DHT22;10089;47.876;8.346;2023-05-07T09:12:31;21.40;99.90
9699;DHT22;10089;47.876;8.346;2023-05-07T09:14:58;21.60;99.90
9699;DHT22;10089;47.876;8.346;2023-05-07T09:17:25;21.10;99.90
9699;DHT22;10089;47.876;8.346;2023-05-07T09:19:51;21.20;99.90
9699;DHT22;10089;47.876;8.346;2023-05-07T09:22:17;21.20;1.00
9699;DHT22;10089;47.876;8.346;2023-05-07T09:24:50;20.80;1.00
9699;DHT22;10089;47.876;8.346;2023-05-07T09:27:17;20.50;99.90
9699;DHT22;10089;47.876;8.346;2023-05-07T09:29:44;20.90;1.00
9699;DHT22;10089;47.876;8.346;2023-05-07T09:32:10;20.50;1.00
9699;DHT22;10089;47.876;8.346;2023-05-07T09:34:36;19.90;1.00
9699;DHT22;10089;47.876;8.346;2023-05-07T09:37:02;19.70;14.90
9699;DHT22;10089;47.876;8.346;2023-05-07T09:39:48;19.60;99.90
9699;DHT22;10089;47.876;8.346;2023-05-07T09:42:15;19.30;1.00
9699;DHT22;10089;47.876;8.346;2023-05-07T09:44:41;18.90;1.00
9699;DHT22;10089;47.876;8.346;2023-05-07T09:47:08;18.80;99.90
9699;DHT22;10089;47.876;8.346;2023-05-07T09:49:36;18.50;1.00
9699;DHT22;10089;47.876;8.346;2023-05-07T09:52:04;17.80;1.00
9699;DHT22;10089;47.876;8.346;2023-05-07T09:54:32;18.10;99.90
9699;DHT22;10089;47.876;8.346;2023-05-07T09:57:01;18.20;1.00
9699;DHT22;10089;47.876;8.346;2023-05-07T09:59:34;18.60;99.90
9699;DHT22;10089;47.876;8.346;2023-05-07T10:02:01;18.70;44.80
9699;DHT22;10089;47.876;8.346;2023-05-07T10:04:27;18.90;1.00
9699;DHT22;10089;47.876;8.346;2023-05-07T10:06:53;18.60;1.00
9699;DHT22;10089;47.876;8.346;2023-05-07T10:09:21;18.30;1.00
9699;DHT22;10089;47.876;8.346;2023-05-07T10:11:49;18.30;1.00
9699;DHT22;10089;47.876;8.346;2023-05-07T10:14:15;19.10;1.00
9699;DHT22;10089;47.876;8.346;2023-05-07T10:16:41;19.10;99.90
9699;DHT22;10089;47.876;8.346;2023-05-07T10:19:08;19.70;99.90
9699;DHT22;10089;47.876;8.346;2023-05-07T10:21:36;20.10;1.00
9699;DHT22;10089;47.876;8.346;2023-05-07T10:24:06;19.20;1.00
9699;DHT22;10089;47.876;8.346;2023-05-07T10:26:41;18.90;1.00
9699;DHT22;10089;47.876;8.346;2023-05-07T10:29:14;19.30;1.00
9699;DHT22;10089;47.876;8.346;2023-05-07T10:34:17;19.70;1.00
9699;DHT22;10089;47.876;8.346;2023-05-07T10:36:45;19.00;1.00
9699;DHT22;10089;47.876;8.346;2023-05-07T10:39:11;19.10;99.90
9699;DHT22;10089;47.876;8.346;2023-05-07T10:41:38;19.00;1.00
9699;DHT22;10089;47.876;8.346;2023-05-07T10:44:04;18.90;1.00
9699;DHT22;10089;47.876;8.346;2023-05-07T10:46:30;18.50;99.90
9699;DHT22;10089;47.876;8.346;2023-05-07T10:49:16;18.60;45.70
9699;DHT22;10089;47.876;8.346;2023-05-07T10:51:42;18.90;99.90
9699;DHT22;10089;47.876;8.346;2023-05-07T10:56:40;17.80;1.00
9699;DHT22;10089;47.876;8.346;2023-05-07T11:04:23;16.30;48.70
9699;DHT22;10089;47.876;8.346;2023-05-07T11:10:01;15.30;99.90
9699;DHT22;10089;47.876;8.346;2023-05-07T11:15:08;14.90;99.90
9699;DHT22;10089;47.876;8.346;2023-05-07T11:17:35;14.90;99.90
9699;DHT22;10089;47.876;8.346;2023-05-07T11:20:17;14.60;99.90
9699;DHT22;10089;47.876;8.346;2023-05-07T11:22:43;14.60;99.90
9699;DHT22;10089;47.876;8.346;2023-05-07T11:25:09;14.60;99.90
9699;DHT22;10089;47.876;8.346;2023-05-07T11:27:34;14.70;99.90
9699;DHT22;10089;47.876;8.346;2023-05-07T11:30:02;14.70;99.90
9699;DHT22;10089;47.876;8.346;2023-05-07T11:32:30;14.50;99.90
9699;DHT22;10089;47.876;8.346;2023-05-07T11:34:57;14.40;99.90
9699;DHT22;10089;47.876;8.346;2023-05-07T11:37:24;14.20;99.90
9699;DHT22;10089;47.876;8.346;2023-05-07T11:39:50;14.20;99.90
9699;DHT22;10089;47.876;8.346;2023-05-07T11:42:31;14.20;99.90
9699;DHT22;10089;47.876;8.346;2023-05-07T11:44:58;14.30;99.90
9699;DHT22;10089;47.876;8.346;2023-05-07T11:47:24;14.40;99.90
9699;DHT22;10089;47.876;8.346;2023-05-07T11:49:54;14.30;99.90
9699;DHT22;10089;47.876;8.346;2023-05-07T11:52:22;14.30;99.90
9699;DHT22;10089;47.876;8.346;2023-05-07T11:54:58;14.20;99.90
9699;DHT22;10089;47.876;8.346;2023-05-07T11:57:26;13.90;99.90
9699;DHT22;10089;47.876;8.346;2023-05-07T12:00:00;13.80;99.90
9699;DHT22;10089;47.876;8.346;2023-05-07T12:02:28;13.70;99.90
9699;DHT22;10089;47.876;8.346;2023-05-07T12:04:54;13.80;99.90
9699;DHT22;10089;47.876;8.346;2023-05-07T12:07:20;13.90;99.90
9699;DHT22;10089;47.876;8.346;2023-05-07T12:09:47;14.00;99.90
9699;DHT22;10089;47.876;8.346;2023-05-07T12:12:13;14.10;99.90
9699;DHT22;10089;47.876;8.346;2023-05-07T12:14:44;14.00;99.90
9699;DHT22;10089;47.876;8.346;2023-05-07T12:17:14;14.00;99.90
9699;DHT22;10089;47.876;8.346;2023-05-07T12:19:41;14.20;99.90
9699;DHT22;10089;47.876;8.346;2023-05-07T12:22:08;14.40;99.90
9699;DHT22;10089;47.876;8.346;2023-05-07T12:27:10;14.90;99.90
9699;DHT22;10089;47.876;8.346;2023-05-07T12:29:36;15.10;99.90
9699;DHT22;10089;47.876;8.346;2023-05-07T12:32:06;15.30;99.90
9699;DHT22;10089;47.876;8.346;2023-05-07T12:34:32;15.60;99.90
9699;DHT22;10089;47.876;8.346;2023-05-07T12:37:01;15.80;99.90
9699;DHT22;10089;47.876;8.346;2023-05-07T12:39:27;15.80;99.90
9699;DHT22;10089;47.876;8.346;2023-05-07T12:41:55;15.90;99.90
9699;DHT22;10089;47.876;8.346;2023-05-07T12:44:39;16.10;99.90
9699;DHT22;10089;47.876;8.346;2023-05-07T12:47:05;16.20;99.90
9699;DHT22;10089;47.876;8.346;2023-05-07T12:49:30;16.10;99.90
9699;DHT22;10089;47.876;8.346;2023-05-07T12:51:56;16.20;99.90
9699;DHT22;10089;47.876;8.346;2023-05-07T12:54:32;16.30;99.90
9699;DHT22;10089;47.876;8.346;2023-05-07T12:57:02;16.30;99.90
9699;DHT22;10089;47.876;8.346;2023-05-07T12:59:39;16.40;99.90
9699;DHT22;10089;47.876;8.346;2023-05-07T13:02:09;16.30;99.90
9699;DHT22;10089;47.876;8.346;2023-05-07T13:04:35;16.20;99.90
9699;DHT22;10089;47.876;8.346;2023-05-07T13:07:01;15.80;99.90
9699;DHT22;10089;47.876;8.346;2023-05-07T13:09:28;15.80;99.90
9699;DHT22;10089;47.876;8.346;2023-05-07T13:12:05;15.90;99.90
9699;DHT22;10089;47.876;8.346;2023-05-07T13:35:07;16.70;99.90
9699;DHT22;10089;47.876;8.346;2023-05-07T13:37:33;16.60;99.90
9699;DHT22;10089;47.876;8.346;2023-05-07T13:39:58;16.40;99.90
9699;DHT22;10089;47.876;8.346;2023-05-07T13:42:24;16.20;99.90
9699;DHT22;10089;47.876;8.346;2023-05-07T13:44:50;16.20;99.90
9699;DHT22;10089;47.876;8.346;2023-05-07T13:47:16;16.10;99.90
9699;DHT22;10089;47.876;8.346;2023-05-07T13:49:42;15.90;99.90
9699;DHT22;10089;47.876;8.346;2023-05-07T13:52:07;15.60;99.90
9699;DHT22;10089;47.876;8.346;2023-05-07T13:54:42;15.30;99.90
9699;DHT22;10089;47.876;8.346;2023-05-07T14:02:48;14.70;99.90
9699;DHT22;10089;47.876;8.346;2023-05-07T14:05:19;14.60;99.90
9699;DHT22;10089;47.876;8.346;2023-05-07T14:07:48;14.60;99.90
9699;DHT22;10089;47.876;8.346;2023-05-07T14:10:24;14.60;99.90
9699;DHT22;10089;47.876;8.346;2023-05-07T14:12:50;14.40;99.90
9699;DHT22;10089;47.876;8.346;2023-05-07T14:15:16;14.40;99.90
9699;DHT22;10089;47.876;8.346;2023-05-07T14:17:48;14.50;99.90
9699;DHT22;10089;47.876;8.346;2023-05-07T14:20:20;14.40;99.90
9699;DHT22;10089;47.876;8.346;2023-05-07T14:22:49;13.90;99.90
9699;DHT22;10089;47.876;8.346;2023-05-07T14:25:21;14.80;99.90
9699;DHT22;10089;47.876;8.346;2023-05-07T14:27:47;14.60;99.90
9699;DHT22;10089;47.876;8.346;2023-05-07T14:30:13;14.70;99.90
9699;DHT22;10089;47.876;8.346;2023-05-07T14:32:39;14.50;99.90
9699;DHT22;10089;47.876;8.346;2023-05-07T14:35:05;14.50;99.90
9699;DHT22;10089;47.876;8.346;2023-05-07T14:37:34;14.70;99.90
9699;DHT22;10089;47.876;8.346;2023-05-07T14:39:59;14.70;99.90
9699;DHT22;10089;47.876;8.346;2023-05-07T14:42:25;14.80;99.90
9699;DHT22;10089;47.876;8.346;2023-05-07T14:45:08;14.80;99.90
9699;DHT22;10089;47.876;8.346;2023-05-07T14:47:52;14.90;99.90
9699;DHT22;10089;47.876;8.346;2023-05-07T14:50:39;15.10;99.90
9699;DHT22;10089;47.876;8.346;2023-05-07T14:53:05;15.20;99.90
9699;DHT22;10089;47.876;8.346;2023-05-07T14:55:32;15.00;99.90
9699;DHT22;10089;47.876;8.346;2023-05-07T14:58:21;15.60;99.90
9699;DHT22;10089;47.876;8.346;2023-05-07T15:00:50;15.20;99.90
9699;DHT22;10089;47.876;8.346;2023-05-07T15:03:34;15.30;99.90
9699;DHT22;10089;47.876;8.346;2023-05-07T15:06:03;15.20;99.90
9699;DHT22;10089;47.876;8.346;2023-05-07T15:08:56;15.10;99.90
9699;DHT22;10089;47.876;8.346;2023-05-07T15:11:34;16.20;99.90
9699;DHT22;10089;47.876;8.346;2023-05-07T15:14:12;15.20;99.90
9699;DHT22;10089;47.876;8.346;2023-05-07T15:16:45;15.60;99.90
9699;DHT22;10089;47.876;8.346;2023-05-07T15:19:24;15.60;99.90
9699;DHT22;10089;47.876;8.346;2023-05-07T15:22:30;15.10;99.90
9699;DHT22;10089;47.876;8.346;2023-05-07T15:24:56;15.20;99.90
9699;DHT22;10089;47.876;8.346;2023-05-07T15:27:22;15.60;99.90
9699;DHT22;10089;47.876;8.346;2023-05-07T15:29:48;15.70;99.90
9699;DHT22;10089;47.876;8.346;2023-05-07T15:32:14;15.70;99.90
9699;DHT22;10089;47.876;8.346;2023-05-07T15:34:39;15.70;99.90
9699;DHT22;10089;47.876;8.346;2023-05-07T15:37:06;15.90;99.90
9699;DHT22;10089;47.876;8.346;2023-05-07T15:39:32;16.00;99.90
9699;DHT22;10089;47.876;8.346;2023-05-07T15:41:58;15.90;99.90
9699;DHT22;10089;47.876;8.346;2023-05-07T15:44:23;15.90;99.90
9699;DHT22;10089;47.876;8.346;2023-05-07T15:46:53;15.90;96.50
9699;DHT22;10089;47.876;8.346;2023-05-07T15:49:18;15.90;1.00
9699;DHT22;10089;47.876;8.346;2023-05-07T15:51:44;15.90;81.90
9699;DHT22;10089;47.876;8.346;2023-05-07T15:54:10;15.90;1.00
9699;DHT22;10089;47.876;8.346;2023-05-07T15:56:35;15.80;1.00
9699;DHT22;10089;47.876;8.346;2023-05-07T15:59:01;15.70;1.00
9699;DHT22;10089;47.876;8.346;2023-05-07T16:01:28;15.70;99.90
9699;DHT22;10089;47.876;8.346;2023-05-07T16:03:53;15.70;99.90
9699;DHT22;10089;47.876;8.346;2023-05-07T16:06:19;15.70;99.90
9699;DHT22;10089;47.876;8.346;2023-05-07T16:08:45;15.80;99.90
9699;DHT22;10089;47.876;8.346;2023-05-07T16:11:10;15.70;87.30
9699;DHT22;10089;47.876;8.346;2023-05-07T16:13:36;15.80;33.60
9699;DHT22;10089;47.876;8.346;2023-05-07T16:16:02;15.80;90.90
9699;DHT22;10089;47.876;8.346;2023-05-07T16:18:27;15.80;99.90
9699;DHT22;10089;47.876;8.346;2023-05-07T16:20:53;15.80;99.90
9699;DHT22;10089;47.876;8.346;2023-05-07T16:23:19;15.70;99.90
9699;DHT22;10089;47.876;8.346;2023-05-07T16:25:45;15.80;99.90
9699;DHT22;10089;47.876;8.346;2023-05-07T16:28:14;15.70;99.90
9699;DHT22;10089;47.876;8.346;2023-05-07T16:30:41;15.80;99.90
9699;DHT22;10089;47.876;8.346;2023-05-07T16:33:07;15.80;99.90
9699;DHT22;10089;47.876;8.346;2023-05-07T16:35:32;15.70;99.90
9699;DHT22;10089;47.876;8.346;2023-05-07T16:37:58;15.70;99.90